Time;durP1;ratioP1;P1;durP2;ratioP2;P2;SDS_P1;SDS_P2;PMS_P1;PMS_P2;Temp;Humidity;BMP_temperature;BMP_pressure;BME280_temperature;BME280_humidity;BME280_pressure;Samples;Min_cycle;Max_cycle;Signal;HPM_P1;HPM_P2
2022/09/20 00:00:40;;;;;;;9.00;1.60;;;;;;;21.93;44.72;102363.91;5030475;28;20086;-78
2022/09/20 00:03:05;;;;;;;6.95;1.52;;;;;;;22.01;44.83;102376.97;5024845;28;20034;-78
2022/09/20 00:05:38;;;;;;;5.93;1.40;;;;;;;22.28;44.17;102371.59;5029868;28;20033;-78
2022/09/20 00:08:06;;;;;;;7.10;1.52;;;;;;;21.19;46.93;102377.75;5031041;28;20042;-79
2022/09/20 00:10:35;;;;;;;3.05;1.27;;;;;;;21.86;44.85;102373.88;5025062;28;20375;-78
2022/09/20 00:13:01;;;;;;;6.05;2.10;;;;;;;21.95;44.68;102370.03;5041500;28;20517;-79
2022/09/20 00:15:28;;;;;;;4.28;1.45;;;;;;;22.48;43.17;102371.78;5016066;28;20474;-78
2022/09/20 00:17:53;;;;;;;3.92;1.00;;;;;;;22.55;43.45;102368.94;5067087;28;20033;-79
2022/09/20 00:20:19;;;;;;;7.65;2.08;;;;;;;21.55;44.78;102374.03;5030956;28;20029;-79
2022/09/20 00:22:44;;;;;;;6.82;2.22;;;;;;;22.53;43.01;102364.50;5030524;28;20025;-78
2022/09/20 00:25:09;;;;;;;1.98;0.95;;;;;;;22.60;42.87;102361.63;5027456;28;20030;-78
2022/09/20 00:27:35;;;;;;;4.13;1.30;;;;;;;22.42;43.64;102357.81;5015471;28;20378;-78
2022/09/20 00:30:00;;;;;;;4.85;1.40;;;;;;;22.10;44.17;102365.13;5011243;28;20367;-78
2022/09/20 00:32:25;;;;;;;2.17;1.17;;;;;;;22.41;44.09;102362.28;5016303;28;20092;-78
2022/09/20 00:35:06;;;;;;;6.93;1.45;;;;;;;22.42;43.91;102358.72;5050123;28;20053;-78
2022/09/20 00:37:32;;;;;;;5.45;1.35;;;;;;;22.38;43.84;102367.75;5024407;28;20113;-79
2022/09/20 00:39:57;;;;;;;8.38;1.20;;;;;;;22.31;43.51;102374.16;5013870;28;20129;-79
2022/09/20 00:42:27;;;;;;;3.83;1.20;;;;;;;21.97;44.78;102386.00;5015136;28;20030;-78
2022/09/20 00:44:52;;;;;;;8.10;1.65;;;;;;;21.09;46.77;102388.69;5054055;28;20056;-78
2022/09/20 00:47:26;;;;;;;3.65;1.38;;;;;;;20.51;47.75;102387.63;5029508;28;20128;-79
2022/09/20 00:50:01;;;;;;;7.57;2.22;;;;;;;21.66;46.34;102397.63;5028428;28;20298;-78
2022/09/20 00:52:28;;;;;;;9.93;2.58;;;;;;;21.55;46.95;102397.09;5025244;28;20504;-78
2022/09/20 00:54:54;;;;;;;6.82;1.70;;;;;;;21.92;45.78;102401.22;5032092;28;20130;-78
2022/09/20 00:57:19;;;;;;;7.32;1.50;;;;;;;22.15;45.27;102403.97;5014838;28;20061;-79
2022/09/20 00:59:47;;;;;;;5.07;1.48;;;;;;;21.81;45.36;102389.13;5031480;28;20045;-79
2022/09/20 01:02:20;;;;;;;6.97;1.88;;;;;;;21.86;45.90;102381.88;5017013;28;20030;-79
2022/09/20 01:04:47;;;;;;;9.20;1.67;;;;;;;22.05;46.57;102375.06;5011203;28;20025;-79
2022/09/20 01:07:15;;;;;;;5.13;1.55;;;;;;;22.61;44.67;102363.34;5017159;28;20030;-79
2022/09/20 01:09:40;;;;;;;5.78;1.52;;;;;;;;;;5011332;28;20116;-78
2022/09/20 01:12:12;;;;;;;5.10;1.60;;;;;;;22.59;44.73;102344.75;5010300;28;20125;-78
2022/09/20 01:14:40;;;;;;;5.93;1.67;;;;;;;22.51;43.95;102347.69;5013921;28;20026;-79
2022/09/20 01:17:06;;;;;;;4.30;1.38;;;;;;;22.74;43.92;102346.00;5029684;28;20029;-78
2022/09/20 01:19:50;;;;;;;4.53;1.77;;;;;;;22.56;44.33;102354.66;5014662;28;20096;-78
2022/09/20 01:22:24;;;;;;;10.73;2.00;;;;;;;22.74;44.05;102350.44;5026672;28;20066;-78
2022/09/20 01:25:08;;;;;;;6.30;1.88;;;;;;;21.56;46.48;102361.59;5019192;28;20109;-78
2022/09/20 01:28:02;;;;;;;5.05;1.58;;;;;;;21.99;45.99;102365.50;5020357;28;20585;-77
2022/09/20 01:30:39;;;;;;;6.10;1.65;;;;;;;22.52;45.09;102365.44;5033560;28;20090;-78
2022/09/20 01:33:22;;;;;;;5.38;1.85;;;;;;;22.50;45.01;102367.31;5030915;28;20029;-78
2022/09/20 01:35:49;;;;;;;4.85;1.55;;;;;;;;;;5027271;28;20470;-77
2022/09/20 01:38:56;;;;;;;5.63;1.80;;;;;;;22.43;45.56;102370.22;5034298;28;20083;-77
2022/09/20 01:41:34;;;;;;;5.97;1.38;;;;;;;22.56;45.15;102373.31;5028095;28;20053;-78
2022/09/20 01:44:12;;;;;;;3.97;1.48;;;;;;;22.77;45.11;102372.53;5014263;28;20490;-78
2022/09/20 01:46:41;;;;;;;4.43;1.48;;;;;;;21.88;46.77;102388.94;5047155;28;20440;-78
2022/09/20 01:49:27;;;;;;;7.18;2.10;;;;;;;21.79;47.17;102400.75;5014846;28;20022;-78
2022/09/20 01:52:18;;;;;;;8.50;2.33;;;;;;;22.00;46.55;102393.84;5030382;28;20033;-78
2022/09/20 01:54:58;;;;;;;3.75;1.80;;;;;;;22.10;47.46;102392.59;5019646;28;20501;-79
2022/09/20 01:57:29;;;;;;;5.72;2.10;;;;;;;22.10;46.10;102384.63;5036500;28;20394;-80
2022/09/20 02:00:20;;;;;;;5.82;2.25;;;;;;;22.25;46.48;102363.72;5048319;28;20049;-79
2022/09/20 02:03:23;;;;;;;7.43;2.30;;;;;;;22.49;46.75;102359.34;5047895;28;20022;-81
2022/09/20 02:06:01;;;;;;;6.43;2.15;;;;;;;22.39;45.72;102347.28;5034039;28;20477;-78
2022/09/20 02:08:48;;;;;;;8.00;2.20;;;;;;;20.67;50.74;102342.03;5029395;28;20124;-80
2022/09/20 02:11:17;;;;;;;7.10;2.05;;;;;;;21.23;49.49;102345.75;5064678;28;20029;-78
2022/09/20 02:14:10;;;;;;;8.57;2.17;;;;;;;21.91;47.64;102340.94;5031537;28;20033;-81
2022/09/20 02:16:54;;;;;;;6.55;1.67;;;;;;;22.45;45.95;102331.97;5016272;28;20501;-80
2022/09/20 02:19:34;;;;;;;2.80;1.55;;;;;;;22.48;45.52;102323.84;5058491;28;20029;-81
2022/09/20 02:22:24;;;;;;;5.43;1.40;;;;;;;21.34;47.73;102340.97;5027562;28;20033;-80
2022/09/20 02:25:28;;;;;;;15.25;4.25;;;;;;;22.19;45.75;102331.06;5026883;28;20033;-80
2022/09/20 02:28:27;;;;;;;7.28;1.73;;;;;;;21.89;46.56;102342.78;5024927;28;20179;-80
2022/09/20 02:31:09;;;;;;;5.03;1.50;;;;;;;21.57;46.60;102342.94;5033211;28;20086;-80
2022/09/20 02:34:19;;;;;;;6.05;1.70;;;;;;;22.15;45.96;102342.75;5013318;28;20026;-80
2022/09/20 02:36:57;;;;;;;6.15;1.70;;;;;;;22.18;46.14;102345.28;5028292;28;20048;-80
2022/09/20 02:39:44;;;;;;;6.90;1.83;;;;;;;22.18;46.09;102339.97;5028673;28;20022;-80
2022/09/20 02:42:20;;;;;;;8.05;2.70;;;;;;;22.18;46.31;102345.28;5046708;28;20030;-80
2022/09/20 02:45:01;;;;;;;6.70;1.80;;;;;;;22.37;45.75;102347.34;5027774;28;20057;-80
2022/09/20 02:47:34;;;;;;;7.85;1.92;;;;;;;22.27;45.72;102343.22;5029358;28;20494;-80
2022/09/20 02:50:18;;;;;;;5.78;1.92;;;;;;;22.28;46.04;102345.81;5015963;28;20034;-80
2022/09/20 02:52:53;;;;;;;2.40;1.40;;;;;;;22.32;46.20;102357.25;5011972;28;20485;-80
2022/09/20 02:56:00;;;;;;;5.07;1.83;;;;;;;22.31;45.48;102347.53;5030191;28;20034;-80
2022/09/20 02:58:54;;;;;;;5.93;2.63;;;;;;;22.55;45.83;102348.47;5017398;28;20042;-80
2022/09/20 03:02:10;;;;;;;3.88;1.88;;;;;;;21.95;46.29;102353.22;5048020;28;20371;-80
2022/09/20 03:05:05;;;;;;;6.18;2.03;;;;;;;22.13;46.46;102351.69;5021349;28;20050;-80
2022/09/20 03:07:57;;;;;;;6.45;2.22;;;;;;;22.31;45.76;102350.19;5012511;28;20044;-78
2022/09/20 03:10:49;;;;;;;4.75;2.40;;;;;;;22.40;45.73;102344.56;5022398;28;20462;-80
2022/09/20 03:13:20;;;;;;;5.82;2.03;;;;;;;22.95;44.58;102346.09;5027496;28;20556;-80
2022/09/20 03:15:49;;;;;;;6.53;2.35;;;;;;;22.65;44.63;102349.00;5012843;28;20033;-80
2022/09/20 03:18:58;;;;;;;3.58;1.60;;;;;;;22.66;44.69;102338.28;5041172;28;20420;-80
2022/09/20 03:21:53;;;;;;;6.68;1.80;;;;;;;22.70;44.83;102352.38;5041745;28;20040;-80
2022/09/20 03:24:40;;;;;;;5.68;1.95;;;;;;;22.97;43.51;102349.56;5028298;28;20564;-80
2022/09/20 03:27:27;;;;;;;7.50;1.70;;;;;;;21.89;45.49;102351.63;5023466;28;20040;-80
2022/09/20 03:30:31;;;;;;;8.15;1.67;;;;;;;22.25;45.07;102339.75;5028709;28;20100;-80
2022/09/20 03:32:59;;;;;;;9.15;1.60;;;;;;;21.96;45.69;102352.28;4994931;28;20034;-80
2022/09/20 03:35:36;;;;;;;8.27;1.95;;;;;;;22.25;44.95;102340.63;5008248;28;20046;-80
2022/09/20 03:38:01;;;;;;;9.73;2.33;;;;;;;21.56;46.65;102350.97;5027875;28;20486;-78
2022/09/20 03:40:30;;;;;;;3.58;1.55;;;;;;;21.99;45.27;102349.53;5050511;28;20040;-79
2022/09/20 03:43:13;;;;;;;12.40;2.75;;;;;;;22.27;44.71;102353.88;5014114;28;20120;-78
2022/09/20 03:45:57;;;;;;;2.97;1.70;;;;;;;22.09;45.50;102347.41;5015546;28;20033;-77
2022/09/20 03:48:31;;;;;;;4.63;1.92;;;;;;;22.25;45.54;102353.94;5031146;28;20047;-79
2022/09/20 03:51:05;;;;;;;6.30;2.22;;;;;;;22.22;45.23;102351.38;5026119;28;20126;-79
2022/09/20 03:53:38;;;;;;;7.30;2.03;;;;;;;22.23;45.71;102349.59;5032038;28;20557;-80
2022/09/20 03:56:23;;;;;;;5.78;2.33;;;;;;;22.47;45.23;102346.06;5031276;28;20045;-80
2022/09/20 03:59:24;;;;;;;7.63;1.90;;;;;;;22.45;45.10;102350.59;5044275;28;20046;-80
2022/09/20 04:02:13;;;;;;;7.82;2.33;;;;;;;22.78;44.48;102344.94;5044948;28;20025;-80
2022/09/20 04:05:01;;;;;;;6.55;2.00;;;;;;;22.40;44.99;102349.91;5015317;28;20521;-79
2022/09/20 04:07:57;;;;;;;5.32;2.05;;;;;;;22.09;45.37;102350.06;5029491;28;20025;-80
2022/09/20 04:10:54;;;;;;;13.13;2.25;;;;;;;22.32;45.82;102357.25;5030373;28;20022;-80
2022/09/20 04:13:29;;;;;;;6.50;1.98;;;;;;;22.52;45.72;102352.09;5031122;28;20044;-79
2022/09/20 04:16:31;;;;;;;4.70;2.10;;;;;;;22.92;44.38;102351.56;5030371;28;20091;-80
2022/09/20 04:19:03;;;;;;;5.93;2.00;;;;;;;22.81;44.45;102358.16;5030484;28;20567;-79
2022/09/20 04:21:38;;;;;;;6.07;1.98;;;;;;;22.79;43.87;102356.47;5061772;28;20044;-79
2022/09/20 04:24:15;;;;;;;10.45;2.20;;;;;;;22.50;44.76;102353.97;5048069;28;20094;-80
2022/09/20 04:26:46;;;;;;;5.03;1.98;;;;;;;23.05;43.79;102358.13;5017034;28;20112;-80
2022/09/20 04:29:35;;;;;;;6.20;1.95;;;;;;;22.64;44.55;102364.13;5011651;28;20237;-79
2022/09/20 04:32:12;;;;;;;3.58;1.85;;;;;;;21.78;46.45;102367.09;5052748;28;20032;-79
2022/09/20 04:37:33;;;;;;;6.75;2.38;;;;;;;21.83;46.70;102371.34;5023224;28;20067;-79
2022/09/20 04:40:04;;;;;;;5.95;2.10;;;;;;;20.03;51.38;102379.16;5028573;28;20025;-80
2022/09/20 04:43:01;;;;;;;10.07;2.30;;;;;;;21.70;47.28;102385.97;5023772;28;20037;-78
2022/09/20 04:45:58;;;;;;;8.68;2.05;;;;;;;21.89;46.93;102380.91;5038032;28;20049;-78
2022/09/20 04:48:43;;;;;;;4.88;1.95;;;;;;;21.28;48.13;102373.06;5024855;28;20029;-79
2022/09/20 04:51:40;;;;;;;7.13;2.22;;;;;;;20.48;49.61;102387.72;5056115;28;20455;-79
2022/09/20 04:54:33;;;;;;;7.07;2.60;;;;;;;21.16;48.69;102377.84;5027206;28;20037;-79
2022/09/20 04:57:35;;;;;;;4.97;1.40;;;;;;;19.93;51.86;102375.88;5016804;28;20064;-78
2022/09/20 05:00:12;;;;;;;5.07;1.77;;;;;;;21.46;48.23;102374.28;5018488;28;20026;-79
2022/09/20 05:02:51;;;;;;;8.88;2.08;;;;;;;20.81;49.36;102376.22;5011223;28;20034;-79
2022/09/20 05:05:34;;;;;;;9.75;2.50;;;;;;;21.87;46.83;102382.72;5015358;28;20057;-79
2022/09/20 05:08:19;;;;;;;12.18;1.70;;;;;;;21.34;48.35;102378.19;5047040;28;20061;-79
2022/09/20 05:10:50;;;;;;;5.15;1.48;;;;;;;21.94;46.97;102388.72;5031375;28;20061;-79
2022/09/20 05:13:32;;;;;;;6.45;1.60;;;;;;;20.46;50.19;102384.22;5030452;28;20069;-79
2022/09/20 05:16:07;;;;;;;5.38;1.50;;;;;;;21.37;48.28;102372.78;5023904;28;20029;-79
2022/09/20 05:18:49;;;;;;;8.20;1.70;;;;;;;21.13;48.30;102385.03;5032260;28;20460;-79
2022/09/20 05:21:50;;;;;;;3.28;1.48;;;;;;;21.90;46.70;102381.75;5033357;28;20044;-79
2022/09/20 05:24:39;;;;;;;7.32;1.77;;;;;;;21.92;46.80;102385.25;5019288;28;20038;-79
2022/09/20 05:27:23;;;;;;;7.35;1.55;;;;;;;21.50;47.32;102395.41;5058149;28;20375;-79
2022/09/20 05:30:07;;;;;;;4.40;1.15;;;;;;;21.21;48.00;102382.16;5030859;28;20041;-79
2022/09/20 05:32:44;;;;;;;5.30;1.77;;;;;;;21.34;47.78;102394.16;5031363;28;20025;-79
2022/09/20 05:35:25;;;;;;;5.18;1.65;;;;;;;22.09;46.15;102382.91;5030617;28;20029;-79
2022/09/20 05:37:57;;;;;;;6.63;1.95;;;;;;;22.11;45.56;102386.38;5030996;28;20021;-79
2022/09/20 05:41:06;;;;;;;8.75;1.80;;;;;;;22.20;45.91;102386.06;5032145;28;20022;-79
2022/09/20 05:43:37;;;;;;;5.70;1.50;;;;;;;21.78;46.00;102391.91;5019875;28;20078;-79
2022/09/20 05:46:08;;;;;;;11.00;1.88;;;;;;;21.65;46.58;102393.22;5064527;28;20052;-79
2022/09/20 05:49:02;;;;;;;6.55;1.38;;;;;;;21.17;47.49;102392.88;5030451;28;20040;-79
2022/09/20 05:51:56;;;;;;;8.80;1.70;;;;;;;21.44;47.29;102403.56;5029952;28;20434;-79
2022/09/20 05:54:51;;;;;;;4.75;1.40;;;;;;;21.98;46.35;102393.03;5030862;28;20030;-79
2022/09/20 05:57:55;;;;;;;6.07;1.40;;;;;;;22.34;45.27;102392.75;5030152;28;20029;-79
2022/09/20 06:00:26;;;;;;;7.38;1.40;;;;;;;22.40;45.21;102397.84;5030974;28;20112;-79
2022/09/20 06:03:29;;;;;;;3.53;1.20;;;;;;;22.19;46.02;102400.28;5030321;28;20041;-79
2022/09/20 06:06:01;;;;;;;5.07;1.48;;;;;;;22.55;45.01;102400.91;5030626;28;20061;-79
2022/09/20 06:08:45;;;;;;;11.00;2.67;;;;;;;23.00;44.03;102392.13;5030070;28;20087;-79
2022/09/20 06:11:21;;;;;;;3.20;1.17;;;;;;;22.68;44.72;102394.19;5030402;28;20067;-79
2022/09/20 06:14:26;;;;;;;7.28;1.52;;;;;;;22.69;44.50;102403.91;5032302;28;20108;-79
2022/09/20 06:17:04;;;;;;;4.93;1.45;;;;;;;22.93;44.39;102394.16;5033710;28;20030;-79
2022/09/20 06:19:36;;;;;;;4.10;1.38;;;;;;;22.87;44.38;102402.38;5034304;28;20034;-79
2022/09/20 06:22:30;;;;;;;5.13;1.30;;;;;;;22.84;45.13;102408.69;5035175;28;20510;-79
2022/09/20 06:25:07;;;;;;;4.13;1.25;;;;;;;23.00;44.28;102392.13;5025147;28;20022;-79
2022/09/20 06:27:46;;;;;;;5.05;1.80;;;;;;;22.90;45.24;102404.91;5030603;28;20468;-79
2022/09/20 06:30:19;;;;;;;6.80;1.30;;;;;;;23.03;45.20;102408.00;5014425;28;20052;-79
2022/09/20 06:33:06;;;;;;;5.18;1.70;;;;;;;22.97;44.86;102402.88;5014658;28;20029;-79
2022/09/20 06:35:42;;;;;;;10.90;1.85;;;;;;;23.05;44.33;102406.13;5030415;28;20044;-79
2022/09/20 06:43:47;;;;;;;7.82;1.60;;;;;;;23.07;43.64;102409.63;5034798;28;20513;-79
2022/09/20 06:46:14;;;;;;;8.15;1.83;;;;;;;22.88;43.95;102412.97;5033318;28;20096;-78
2022/09/20 06:48:40;;;;;;;6.55;2.05;;;;;;;23.09;43.84;102407.75;5033349;28;20021;-78
2022/09/20 06:51:08;;;;;;;6.70;2.55;;;;;;;22.83;44.52;102409.63;5033549;28;20052;-78
2022/09/20 06:53:38;;;;;;;5.78;2.75;;;;;;;22.92;43.95;102410.22;5034283;28;20032;-78
2022/09/20 06:56:04;;;;;;;8.35;2.58;;;;;;;23.03;44.57;102413.34;5033795;28;20028;-78
2022/09/20 06:58:30;;;;;;;6.43;3.40;;;;;;;22.72;45.26;102413.59;5032532;28;20009;-78
2022/09/20 07:00:55;;;;;;;5.18;2.92;;;;;;;22.84;45.06;102410.50;5032798;28;20171;-78
2022/09/20 07:03:20;;;;;;;7.40;2.72;;;;;;;22.95;45.31;102415.44;5034287;28;20025;-79
2022/09/20 07:05:46;;;;;;;9.02;3.25;;;;;;;23.14;44.25;102405.81;5032697;28;20029;-79
2022/09/20 07:08:12;;;;;;;7.60;2.05;;;;;;;22.25;45.55;102419.66;5033450;28;20022;-78
2022/09/20 07:10:38;;;;;;;10.73;2.03;;;;;;;23.03;44.70;102408.00;5033254;28;20022;-78
2022/09/20 07:13:04;;;;;;;10.52;1.77;;;;;;;22.91;44.67;102419.13;5032536;28;20124;-79
2022/09/20 07:15:33;;;;;;;12.50;2.85;;;;;;;23.34;43.60;102415.72;5033619;28;20030;-78
2022/09/20 07:17:59;;;;;;;9.32;2.35;;;;;;;23.17;44.13;102416.38;5032816;28;20027;-78
2022/09/20 07:20:25;;;;;;;8.63;2.13;;;;;;;22.69;44.82;102419.91;5032166;28;20033;-78
2022/09/20 07:22:52;;;;;;;5.47;1.58;;;;;;;22.88;44.83;102414.78;5032940;28;20028;-78
2022/09/20 07:25:18;;;;;;;8.73;1.27;;;;;;;22.59;44.55;102416.72;5032701;28;20032;-78
2022/09/20 07:27:45;;;;;;;6.72;1.58;;;;;;;22.53;44.18;102419.56;5031752;28;20021;-78
2022/09/20 07:30:11;;;;;;;4.90;1.40;;;;;;;23.22;43.14;102416.22;5032950;28;20025;-78
2022/09/20 07:32:37;;;;;;;9.48;1.60;;;;;;;22.39;44.72;102428.06;5032026;28;20022;-78
2022/09/20 07:35:03;;;;;;;6.28;0.95;;;;;;;22.80;42.82;102427.53;5031928;28;20051;-78
2022/09/20 07:37:28;;;;;;;3.90;0.98;;;;;;;23.43;42.09;102425.16;5032703;28;20048;-78
2022/09/20 07:39:53;;;;;;;4.20;1.27;;;;;;;23.15;42.53;102431.56;5032598;28;20362;-77
2022/09/20 07:42:19;;;;;;;10.35;1.27;;;;;;;22.73;43.31;102448.19;5031710;28;20523;-78
2022/09/20 07:44:45;;;;;;;9.27;1.10;;;;;;;23.92;40.86;102434.81;5032287;28;20522;-78
2022/09/20 07:47:13;;;;;;;12.45;2.10;;;;;;;26.13;38.43;102431.06;5032461;28;20021;-78
2022/09/20 07:49:38;;;;;;;4.80;0.75;;;;;;;26.44;34.07;102445.53;5031072;28;20029;-78
2022/09/20 07:52:04;;;;;;;6.72;1.60;;;;;;;26.87;34.12;102443.31;5032204;28;20025;-78
2022/09/20 07:54:29;;;;;;;5.88;1.00;;;;;;;27.25;33.41;102434.94;5032013;28;20401;-78
2022/09/20 07:56:54;;;;;;;4.03;0.80;;;;;;;26.94;34.96;102451.00;5031402;28;20124;-78
2022/09/20 07:59:20;;;;;;;5.72;0.80;;;;;;;26.08;34.25;102457.22;5031930;28;20389;-78
2022/09/20 08:01:45;;;;;;;4.90;0.88;;;;;;;24.89;35.86;102460.09;5032008;28;20394;-78
2022/09/20 08:04:11;;;;;;;6.13;1.20;;;;;;;25.69;34.17;102458.19;5032322;28;20052;-78
2022/09/20 08:06:42;;;;;;;5.07;0.88;;;;;;;25.89;33.42;102463.44;5030981;28;20038;-78
2022/09/20 08:09:09;;;;;;;3.22;0.70;;;;;;;25.31;36.40;102451.03;5031650;28;20120;-78
2022/09/20 08:11:35;;;;;;;9.27;0.82;;;;;;;25.51;34.41;102463.50;5033012;28;20029;-78
2022/09/20 08:14:02;;;;;;;8.30;1.10;;;;;;;24.08;37.69;102467.13;5033117;28;20047;-78
2022/09/20 08:16:30;;;;;;;6.25;0.75;;;;;;;24.05;36.76;102474.31;5032325;28;20535;-78
2022/09/20 08:18:57;;;;;;;4.05;0.90;;;;;;;24.10;36.16;102470.56;5031424;28;20083;-77
2022/09/20 08:21:25;;;;;;;4.53;1.20;;;;;;;23.86;37.88;102484.84;5033034;28;20033;-77
2022/09/20 08:23:50;;;;;;;5.35;0.90;;;;;;;23.25;37.52;102479.25;5024237;28;20030;-78
2022/09/20 08:26:19;;;;;;;2.85;0.80;;;;;;;23.68;38.03;102480.25;5013429;28;20032;-78
2022/09/20 08:28:45;;;;;;;5.78;1.10;;;;;;;22.80;39.25;102494.16;5012002;28;20149;-78
2022/09/20 08:31:14;;;;;;;8.68;0.90;;;;;;;22.12;38.91;102489.31;5027807;28;20034;-78
2022/09/20 08:33:41;;;;;;;5.93;0.90;;;;;;;22.22;37.74;102489.88;5011912;28;20049;-78
2022/09/20 08:36:10;;;;;;;5.72;1.00;;;;;;;22.99;37.61;102481.03;5012691;28;20493;-79
2022/09/20 08:38:36;;;;;;;7.22;1.13;;;;;;;23.81;35.37;102486.84;5012312;28;20125;-78
2022/09/20 08:41:11;;;;;;;5.57;0.85;;;;;;;23.49;35.93;102478.31;5021253;28;20108;-79
2022/09/20 08:43:44;;;;;;;3.97;0.70;;;;;;;23.54;34.77;102484.31;5031349;28;20560;-78
2022/09/20 08:46:15;;;;;;;7.25;1.00;;;;;;;23.54;35.08;102478.97;5032198;28;20037;-79
2022/09/20 08:48:40;;;;;;;3.38;0.60;;;;;;;23.55;35.90;102488.72;5030956;28;20081;-78
2022/09/20 08:51:11;;;;;;;3.95;0.85;;;;;;;23.36;35.53;102491.22;5031157;28;20029;-78
2022/09/20 08:53:45;;;;;;;8.30;0.90;;;;;;;22.31;38.59;102488.69;5031525;28;20040;-78
2022/09/20 08:56:10;;;;;;;6.25;0.80;;;;;;;21.96;39.63;102498.69;5031403;28;20021;-78
2022/09/20 08:58:37;;;;;;;4.07;0.60;;;;;;;21.74;39.81;102502.03;5030084;28;20032;-78
2022/09/20 09:01:04;;;;;;;5.30;0.60;;;;;;;22.93;37.65;102498.13;5031152;28;20025;-78
2022/09/20 09:03:31;;;;;;;3.95;0.80;;;;;;;23.36;38.17;102499.22;5031298;28;20032;-78
2022/09/20 09:05:57;;;;;;;5.22;0.90;;;;;;;22.32;38.10;102511.72;5030435;28;20032;-78
2022/09/20 09:08:29;;;;;;;5.07;1.02;;;;;;;24.12;36.50;102498.97;5031270;28;20107;-79
2022/09/20 09:11:07;;;;;;;5.90;1.10;;;;;;;24.10;35.31;102503.50;5032456;28;20036;-78
2022/09/20 09:13:54;;;;;;;2.78;0.80;;;;;;;24.09;35.04;102512.44;5031898;28;20022;-79
2022/09/20 09:16:22;;;;;;;3.38;0.68;;;;;;;24.62;34.11;102504.94;5043719;28;20045;-79
2022/09/20 09:18:50;;;;;;;2.90;0.68;;;;;;;25.30;33.59;102510.81;5026860;28;20028;-79
2022/09/20 09:21:34;;;;;;;5.28;0.75;;;;;;;25.63;32.04;102509.38;5030443;28;20393;-78
2022/09/20 09:24:04;;;;;;;5.07;1.02;;;;;;;24.27;35.00;102515.31;5031202;28;20022;-79
2022/09/20 09:26:38;;;;;;;4.30;0.90;;;;;;;25.31;33.35;102509.03;5030378;28;20118;-79
2022/09/20 09:29:23;;;;;;;5.20;1.00;;;;;;;25.66;33.16;102504.72;5030985;28;20033;-78
2022/09/20 09:31:50;;;;;;;6.95;1.40;;;;;;;24.92;34.00;102507.22;5024822;28;20022;-79
2022/09/20 09:34:30;;;;;;;7.45;1.20;;;;;;;24.48;34.44;102509.06;5011719;28;20083;-78
2022/09/20 09:36:57;;;;;;;8.63;1.35;;;;;;;24.63;34.58;102502.19;5027676;28;20040;-79
2022/09/20 09:39:31;;;;;;;8.50;1.25;;;;;;;24.17;35.10;102510.34;5010991;28;20025;-78
2022/09/20 09:42:00;;;;;;;7.60;1.35;;;;;;;23.40;37.24;102513.34;5011770;28;20079;-78
2022/09/20 09:44:28;;;;;;;5.82;0.90;;;;;;;24.60;35.85;102514.81;5027314;28;20076;-78
2022/09/20 09:46:55;;;;;;;3.85;0.68;;;;;;;24.78;35.07;102510.50;5027899;28;20057;-78
2022/09/20 09:49:34;;;;;;;4.70;1.88;;;;;;;24.72;35.18;102512.50;5015957;28;20026;-79
2022/09/20 09:52:24;;;;;;;3.67;0.90;;;;;;;24.30;34.72;102509.81;5031313;28;20091;-79
2022/09/20 09:54:53;;;;;;;6.05;1.05;;;;;;;25.15;35.32;102507.03;5030825;28;20122;-79
2022/09/20 09:57:58;;;;;;;6.53;1.15;;;;;;;25.68;32.86;102502.00;5031299;28;20109;-79
2022/09/20 10:00:26;;;;;;;8.85;2.22;;;;;;;24.86;33.73;102511.88;5014530;28;20112;-79
2022/09/20 10:03:47;;;;;;;10.18;1.10;;;;;;;25.51;33.67;102514.38;5030459;28;20105;-79
2022/09/20 10:06:39;;;;;;;11.98;1.23;;;;;;;25.32;34.25;102516.09;5014728;28;20393;-79
2022/09/20 10:09:15;;;;;;;4.57;1.02;;;;;;;24.69;35.67;102519.81;5013725;28;20036;-79
2022/09/20 10:11:47;;;;;;;6.20;1.33;;;;;;;24.45;35.89;102522.53;5031058;28;20155;-79
2022/09/20 10:14:22;;;;;;;6.03;1.25;;;;;;;24.20;35.09;102515.53;5030872;28;20494;-78
2022/09/20 10:17:25;;;;;;;7.22;1.10;;;;;;;23.82;36.28;102515.28;5030544;28;20025;-78
2022/09/20 10:20:04;;;;;;;7.32;1.20;;;;;;;23.84;36.80;102513.41;5030952;28;20030;-79
2022/09/20 10:22:39;;;;;;;7.47;1.60;;;;;;;23.64;37.43;102507.97;5014929;28;20041;-78
2022/09/20 10:25:20;;;;;;;6.43;1.60;;;;;;;24.82;35.85;102515.63;5030332;28;20398;-79
2022/09/20 10:27:57;;;;;;;5.03;1.33;;;;;;;25.64;34.58;102514.66;5030493;28;20517;-78
2022/09/20 10:30:30;;;;;;;4.65;1.10;;;;;;;25.37;35.55;102514.97;5030226;28;20065;-79
2022/09/20 10:32:59;;;;;;;7.03;1.00;;;;;;;24.92;35.56;102517.91;5014418;28;20037;-80
2022/09/20 10:35:27;;;;;;;5.05;1.33;;;;;;;24.87;35.18;102516.31;5014128;28;20037;-80
2022/09/20 10:38:13;;;;;;;8.27;1.73;;;;;;;23.83;36.89;102517.00;5030067;28;20554;-80
2022/09/20 10:44:11;;;;;;;4.95;1.52;;;;;;;24.78;35.31;102515.84;5014840;28;20131;-79
2022/09/20 10:46:46;;;;;;;6.57;1.80;;;;;;;25.33;35.08;102517.88;5030551;28;20037;-80
2022/09/20 10:49:48;;;;;;;8.73;1.67;;;;;;;25.68;34.47;102523.41;5030214;28;20038;-79
2022/09/20 10:52:38;;;;;;;4.73;1.23;;;;;;;25.09;34.98;102531.41;5029869;28;20042;-79
2022/09/20 10:55:07;;;;;;;5.32;1.20;;;;;;;24.47;36.10;102523.34;5030452;28;20045;-79
2022/09/20 10:57:37;;;;;;;6.20;1.77;;;;;;;24.60;37.05;102536.19;5040439;28;20547;-79
2022/09/20 11:00:24;;;;;;;4.95;1.27;;;;;;;24.78;35.47;102532.75;5045563;28;20038;-79
2022/09/20 11:03:18;;;;;;;3.47;1.13;;;;;;;25.04;36.10;102536.09;5046883;28;20093;-79
2022/09/20 11:06:31;;;;;;;9.65;2.35;;;;;;;25.01;35.47;102533.56;5012901;28;20064;-78
2022/09/20 11:09:00;;;;;;;7.97;1.13;;;;;;;24.40;35.94;102535.25;5012698;28;20037;-79
2022/09/20 11:11:31;;;;;;;3.95;0.98;;;;;;;24.70;35.66;102534.88;5047113;28;20088;-79
2022/09/20 11:14:05;;;;;;;6.30;1.08;;;;;;;24.76;35.30;102529.28;5022358;28;20026;-79
2022/09/20 11:16:42;;;;;;;5.18;1.00;;;;;;;25.70;34.44;102524.19;5033132;28;20029;-79
2022/09/20 11:19:25;;;;;;;3.50;0.73;;;;;;;25.66;34.52;102528.81;5032378;28;20401;-79
2022/09/20 11:21:57;;;;;;;7.85;1.13;;;;;;;23.98;36.78;102525.38;5032931;28;20511;-79
2022/09/20 11:24:41;;;;;;;7.40;1.10;;;;;;;24.54;35.94;102524.81;5033234;28;20033;-79
2022/09/20 11:27:17;;;;;;;3.80;0.77;;;;;;;25.88;34.16;102517.97;5032083;28;20037;-79
2022/09/20 11:29:57;;;;;;;4.22;0.95;;;;;;;26.09;32.52;102520.56;5032838;28;20385;-79
2022/09/20 11:32:34;;;;;;;3.55;0.70;;;;;;;26.40;34.10;102519.03;5066002;28;20044;-79
2022/09/20 11:35:20;;;;;;;7.28;1.95;;;;;;;25.35;33.41;102516.03;5033114;28;20385;-78
2022/09/20 11:37:54;;;;;;;4.40;1.85;;;;;;;25.14;31.89;102518.72;5065998;28;20063;-78
2022/09/20 11:40:33;;;;;;;5.85;0.70;;;;;;;26.04;32.43;102522.59;5033130;28;20142;-79
2022/09/20 11:43:02;;;;;;;2.78;0.52;;;;;;;25.99;32.38;102522.78;5032470;28;20049;-78
2022/09/20 11:45:29;;;;;;;6.22;0.82;;;;;;;24.70;33.65;102521.50;5033533;28;20032;-79
2022/09/20 11:48:01;;;;;;;2.42;0.50;;;;;;;24.21;33.79;102533.31;5024691;28;20109;-79
2022/09/20 11:50:31;;;;;;;6.47;0.95;;;;;;;23.97;35.16;102529.81;5028986;28;20037;-79
2022/09/20 11:53:38;;;;;;;4.10;0.60;;;;;;;23.37;35.40;102535.66;5028808;28;20038;-78
2022/09/20 11:56:21;;;;;;;3.15;0.60;;;;;;;23.46;35.79;102537.09;5012132;28;20042;-78
2022/09/20 11:58:49;;;;;;;2.30;0.60;;;;;;;23.38;34.78;102534.75;5029055;28;20101;-79
2022/09/20 12:01:39;;;;;;;3.95;0.50;;;;;;;25.01;33.02;102530.88;5011827;28;20121;-78
2022/09/20 12:04:13;;;;;;;3.90;0.70;;;;;;;24.71;32.63;102531.28;5012881;28;20040;-78
2022/09/20 12:06:41;;;;;;;3.13;0.77;;;;;;;26.49;30.94;102534.63;5013550;28;20079;-78
2022/09/20 12:09:23;;;;;;;4.28;0.93;;;;;;;26.56;31.07;102530.69;5011607;28;20026;-78
2022/09/20 12:11:51;;;;;;;2.72;0.60;;;;;;;25.78;32.01;102530.03;5011393;28;20402;-78
2022/09/20 12:14:21;;;;;;;3.08;0.70;;;;;;;26.33;30.71;102537.22;5012134;28;20049;-78
2022/09/20 12:16:48;;;;;;;4.78;0.80;;;;;;;27.04;30.54;102532.75;5028117;28;20048;-79
2022/09/20 12:19:20;;;;;;;4.75;0.82;;;;;;;26.48;31.19;102540.94;5028500;28;20022;-78
2022/09/20 12:21:57;;;;;;;6.15;0.73;;;;;;;26.90;31.02;102537.03;5031838;28;20029;-78
2022/09/20 12:24:32;;;;;;;7.03;1.45;;;;;;;26.67;30.71;102540.88;5044247;28;20026;-78